St-Hubert, Belgium
Current Conditions -  °F | °C
As of 10:55 PM on Saturday 20 Dec 2014 (Local Time) from EBFS Reporting Station
Broken Clouds Broken Clouds  
Wind Chill: 32°   Ceiling: 2800
Heat Index: 39°   Visibility: 6mi
Dew Point: 36°   Wind: 10mph
Humidity: 87%   Direction: 270°W
Pressure: 30.39"   Gusts: NA
Location:  50.03°N, 5.4°E
Report Text: EBFS 202155Z AUTO 27009KT 9999 FEW023/// BKN028/// 04/02 Q1029 BLU
Loading
Personal Weather Stations






























Interactive Weather Map New forecast layout! Learn more

10-Day Weather Forecast

Advertisements
Track Severe Weather on mobile